Time;durP1;ratioP1;P1;durP2;ratioP2;P2;SDS_P1;SDS_P2;PMS_P1;PMS_P2;Temp;Humidity;BMP_temperature;BMP_pressure;BME280_temperature;BME280_humidity;BME280_pressure;Samples;Min_cycle;Max_cycle;Signal;HPM_P1;HPM_P2
2024/02/11 00:00:35;;;;;;;0.30;0.20;;;;;;;10.99;100.00;97420.31;5094547;28;20473;-51
2024/02/11 00:03:04;;;;;;;0.30;0.20;;;;;;;11.21;100.00;97422.16;5094961;28;20496;-51
2024/02/11 00:05:39;;;;;;;0.30;0.20;;;;;;;11.28;100.00;97426.88;5094527;28;20868;-51
2024/02/11 00:08:07;;;;;;;0.30;0.30;;;;;;;11.34;100.00;97422.91;5095450;28;20888;-51
2024/02/11 00:10:35;;;;;;;0.30;0.20;;;;;;;11.30;100.00;97423.25;5095011;28;20492;-51
2024/02/11 00:13:03;;;;;;;0.30;0.20;;;;;;;11.17;100.00;97424.22;5094422;28;20865;-51
2024/02/11 00:15:31;;;;;;;0.30;0.20;;;;;;;11.06;100.00;97423.34;5094617;28;20492;-51
2024/02/11 00:18:05;;;;;;;0.30;0.20;;;;;;;11.05;100.00;97427.81;5094472;28;20481;-51
2024/02/11 00:20:39;;;;;;;0.30;0.20;;;;;;;10.99;100.00;97430.94;5094620;28;20532;-51
2024/02/11 00:23:09;;;;;;;0.30;0.20;;;;;;;11.12;100.00;97428.19;5094379;28;21090;-51
2024/02/11 00:25:45;;;;;;;0.30;0.20;;;;;;;11.10;100.00;97430.09;5094378;28;20500;-51
2024/02/11 00:28:21;;;;;;;0.83;0.83;;;;;;;11.07;100.00;97423.22;5094268;28;20448;-51
2024/02/11 00:30:53;;;;;;;0.30;0.20;;;;;;;11.05;100.00;97426.97;5094414;28;20452;-51
2024/02/11 00:33:24;;;;;;;0.30;0.20;;;;;;;10.97;100.00;97416.94;5094358;28;20428;-51
2024/02/11 00:35:57;;;;;;;0.30;0.20;;;;;;;11.17;100.00;97413.56;5094191;28;20936;-51
2024/02/11 00:38:35;;;;;;;0.30;0.20;;;;;;;11.17;100.00;97418.88;5100269;28;20445;-51
2024/02/11 00:41:06;;;;;;;0.30;0.20;;;;;;;11.08;100.00;97422.25;5090512;28;20450;-51
2024/02/11 00:43:35;;;;;;;1.30;1.30;;;;;;;11.02;100.00;97411.25;5088840;28;20451;-51
2024/02/11 00:46:22;;;;;;;0.30;0.20;;;;;;;10.89;100.00;97416.66;5093873;28;20492;-51
2024/02/11 00:48:52;;;;;;;0.30;0.20;;;;;;;10.96;100.00;97416.09;5089509;28;20506;-51
2024/02/11 00:51:23;;;;;;;0.30;0.20;;;;;;;11.09;100.00;97423.09;5094141;28;20449;-51
2024/02/11 00:54:03;;;;;;;0.30;0.20;;;;;;;10.92;100.00;97417.25;5093911;28;20480;-51
2024/02/11 00:56:34;;;;;;;0.30;0.20;;;;;;;10.84;100.00;97417.00;5093371;28;20835;-51
2024/02/11 00:59:10;;;;;;;0.30;0.20;;;;;;;10.85;100.00;97423.19;5094093;28;20445;-51
2024/02/11 01:01:42;;;;;;;0.30;0.20;;;;;;;10.83;100.00;97419.78;5093463;28;20527;-51
2024/02/11 01:04:09;;;;;;;0.30;0.20;;;;;;;10.85;100.00;97409.88;5093836;28;20445;-51
2024/02/11 01:06:36;;;;;;;0.30;0.20;;;;;;;10.82;100.00;97424.22;5093607;28;20503;-51
2024/02/11 01:09:05;;;;;;;0.30;0.20;;;;;;;10.96;100.00;97417.88;5093723;28;21048;-51
2024/02/11 01:11:33;;;;;;;0.30;0.20;;;;;;;10.94;100.00;97417.97;5093391;28;20527;-51
2024/02/11 01:14:08;;;;;;;0.30;0.20;;;;;;;10.70;100.00;97427.84;5093497;28;20532;-51
2024/02/11 01:16:40;;;;;;;0.30;0.20;;;;;;;10.88;100.00;97421.13;5093452;28;20514;-51
2024/02/11 01:19:22;;;;;;;0.30;0.20;;;;;;;11.01;100.00;97421.03;5093412;28;20541;-51
2024/02/11 01:21:53;;;;;;;0.30;0.20;;;;;;;10.92;100.00;97435.88;5093423;28;20448;-51
2024/02/11 01:24:21;;;;;;;0.30;0.20;;;;;;;10.87;100.00;97439.84;5093138;28;20460;-51
2024/02/11 01:26:57;;;;;;;0.30;0.20;;;;;;;10.76;100.00;97435.34;5093176;28;20484;-51
2024/02/11 01:29:43;;;;;;;0.30;0.20;;;;;;;10.60;100.00;97440.09;5086009;28;20520;-51
2024/02/11 01:32:15;;;;;;;0.30;0.20;;;;;;;10.52;100.00;97448.63;5093201;28;20449;-51
2024/02/11 01:34:48;;;;;;;0.30;0.20;;;;;;;10.56;100.00;97449.28;5091665;28;20461;-51
2024/02/11 01:37:19;;;;;;;0.30;0.20;;;;;;;10.30;100.00;97453.84;5099028;28;20448;-51
2024/02/11 01:39:48;;;;;;;0.30;0.20;;;;;;;10.17;100.00;97456.50;5080593;28;20426;-51
2024/02/11 01:42:21;;;;;;;7.20;5.03;;;;;;;10.38;100.00;97456.75;5092575;28;20455;-51
2024/02/11 01:45:07;;;;;;;0.30;0.20;;;;;;;10.48;100.00;97457.78;5092790;28;20955;-51
2024/02/11 01:47:47;;;;;;;0.30;0.20;;;;;;;10.52;100.00;97448.63;5092707;28;20485;-51
2024/02/11 01:50:20;;;;;;;0.40;0.40;;;;;;;10.59;100.00;97451.69;5092732;28;20918;-51
2024/02/11 01:52:56;;;;;;;0.30;0.20;;;;;;;10.63;100.00;97453.16;5092798;28;20451;-51
2024/02/11 01:55:27;;;;;;;0.30;0.20;;;;;;;10.66;100.00;97458.22;5091595;28;20476;-51
2024/02/11 01:58:05;;;;;;;0.30;0.20;;;;;;;10.53;100.00;97455.63;5091428;28;20480;-51
2024/02/11 02:00:42;;;;;;;0.30;0.20;;;;;;;10.74;100.00;97452.34;5092348;28;20444;-51
2024/02/11 02:03:13;;;;;;;0.30;0.20;;;;;;;10.72;100.00;97460.44;5092495;28;20539;-51
2024/02/11 02:05:48;;;;;;;0.30;0.20;;;;;;;10.69;100.00;97458.03;5092145;28;20583;-51
2024/02/11 02:08:23;;;;;;;0.30;0.20;;;;;;;10.87;100.00;97458.44;5091852;28;20449;-51
2024/02/11 02:11:07;;;;;;;0.30;0.20;;;;;;;10.77;100.00;97458.28;5074621;28;20950;-51
2024/02/11 02:13:35;;;;;;;0.30;0.20;;;;;;;10.80;100.00;97466.00;5092006;28;20419;-51
2024/02/11 02:16:08;;;;;;;0.30;0.20;;;;;;;10.62;100.00;97462.09;5092411;28;20461;-51
2024/02/11 02:18:38;;;;;;;0.30;0.20;;;;;;;10.58;100.00;97455.31;5091941;28;20451;-51
2024/02/11 02:21:09;;;;;;;0.30;0.20;;;;;;;10.82;100.00;97465.91;5092002;28;20865;-51
2024/02/11 02:23:38;;;;;;;0.30;0.20;;;;;;;10.98;100.00;97456.69;5092402;28;20431;-51
2024/02/11 02:26:14;;;;;;;0.30;0.20;;;;;;;11.00;100.00;97464.53;5091629;28;20489;-51
2024/02/11 02:28:50;;;;;;;0.30;0.20;;;;;;;11.07;100.00;97449.78;5091821;28;20510;-51
2024/02/11 02:31:25;;;;;;;0.50;0.20;;;;;;;11.14;100.00;97468.81;5092001;28;20444;-51
2024/02/11 02:34:07;;;;;;;0.30;0.20;;;;;;;11.17;100.00;97463.25;5091871;28;20448;-51
2024/02/11 02:36:48;;;;;;;0.30;0.20;;;;;;;11.20;100.00;97463.00;5088498;28;20554;-51
2024/02/11 02:39:19;;;;;;;0.30;0.20;;;;;;;11.25;100.00;97472.34;5091706;28;20559;-51
2024/02/11 02:41:50;;;;;;;0.30;0.20;;;;;;;11.31;100.00;97476.31;5091385;28;20456;-51
2024/02/11 02:44:21;;;;;;;0.30;0.20;;;;;;;11.34;100.00;97478.75;5091658;28;20456;-51
2024/02/11 02:46:53;;;;;;;0.30;0.20;;;;;;;11.04;100.00;97486.41;5084824;28;20485;-51
2024/02/11 02:49:24;;;;;;;0.30;0.20;;;;;;;11.15;100.00;97483.78;5091325;28;20462;-50
2024/02/11 02:52:01;;;;;;;0.30;0.20;;;;;;;11.09;99.68;97489.53;5091541;28;20453;-51
2024/02/11 02:54:28;;;;;;;0.30;0.20;;;;;;;11.19;99.32;97490.56;5091618;28;20438;-51
2024/02/11 02:56:58;;;;;;;0.30;0.20;;;;;;;11.16;98.60;97496.97;5091964;28;20522;-52
2024/02/11 02:59:25;;;;;;;0.30;0.20;;;;;;;11.07;98.10;97497.63;5091768;28;20449;-52
2024/02/11 03:01:58;;;;;;;0.30;0.20;;;;;;;11.00;98.54;97500.91;5091543;28;20895;-51
2024/02/11 03:04:25;;;;;;;0.30;0.20;;;;;;;11.00;98.09;97507.06;5087345;28;20465;-52
2024/02/11 03:06:55;;;;;;;0.30;0.20;;;;;;;11.22;97.03;97512.44;5088897;28;20561;-51
2024/02/11 03:09:24;;;;;;;0.30;0.20;;;;;;;11.17;96.61;97511.09;5091409;28;20545;-52
2024/02/11 03:11:50;;;;;;;0.30;0.20;;;;;;;11.10;97.27;97515.16;5091087;28;20965;-52
2024/02/11 03:14:18;;;;;;;0.30;0.20;;;;;;;11.12;97.88;97523.91;5091493;28;20445;-52
2024/02/11 03:16:46;;;;;;;0.30;0.20;;;;;;;11.04;98.36;97529.78;5091183;28;20528;-51
2024/02/11 03:19:14;;;;;;;0.30;0.20;;;;;;;10.91;98.08;97531.66;5094498;28;20423;-51
2024/02/11 03:21:40;;;;;;;0.30;0.20;;;;;;;10.56;98.65;97532.47;5095557;28;21016;-50
2024/02/11 03:24:07;;;;;;;0.30;0.20;;;;;;;10.65;99.06;97533.56;5095800;28;20427;-52
2024/02/11 03:26:34;;;;;;;0.30;0.20;;;;;;;10.64;99.46;97550.47;5095512;28;20566;-51
2024/02/11 03:29:01;;;;;;;0.30;0.20;;;;;;;10.56;99.36;97561.66;5095529;28;20484;-52
2024/02/11 03:31:28;;;;;;;0.30;0.20;;;;;;;10.64;99.25;97564.59;5095216;28;20494;-51
2024/02/11 03:33:54;;;;;;;0.30;0.20;;;;;;;10.61;99.48;97569.28;5095266;28;20945;-51
2024/02/11 03:36:21;;;;;;;0.30;0.20;;;;;;;10.54;99.17;97573.34;5095154;28;20838;-51
2024/02/11 03:38:47;;;;;;;0.30;0.20;;;;;;;10.51;98.41;97571.75;5095211;28;21048;-52
2024/02/11 03:41:16;;;;;;;0.30;0.20;;;;;;;10.52;97.74;97575.25;5095008;28;20440;-52
2024/02/11 03:43:43;;;;;;;0.30;0.20;;;;;;;10.39;97.65;97583.25;5095044;28;20448;-52
2024/02/11 03:46:09;;;;;;;0.30;0.20;;;;;;;10.42;97.82;97577.75;5080103;28;20583;-51
2024/02/11 03:48:36;;;;;;;0.30;0.20;;;;;;;10.42;97.34;97582.22;5095489;28;20518;-51
2024/02/11 03:51:03;;;;;;;0.30;0.20;;;;;;;10.31;97.52;97589.13;5095118;28;20483;-51
2024/02/11 03:53:29;;;;;;;0.30;0.20;;;;;;;10.54;97.01;97589.28;5095104;28;20455;-51
2024/02/11 03:55:56;;;;;;;0.30;0.20;;;;;;;10.37;97.46;97594.00;5094908;28;20469;-52
2024/02/11 03:58:22;;;;;;;0.30;0.20;;;;;;;10.48;97.28;97589.72;5094715;28;20793;-51
2024/02/11 04:00:48;;;;;;;0.30;0.20;;;;;;;10.50;98.01;97593.97;5094572;28;20470;-51
2024/02/11 04:03:16;;;;;;;0.30;0.20;;;;;;;10.51;97.74;97602.78;5094553;28;20969;-52
2024/02/11 04:05:48;;;;;;;0.30;0.20;;;;;;;10.52;97.29;97607.97;5094882;28;20484;-51
2024/02/11 04:08:15;;;;;;;0.30;0.20;;;;;;;10.61;96.97;97611.78;5094541;28;21058;-52
2024/02/11 04:10:42;;;;;;;0.30;0.20;;;;;;;10.65;97.55;97605.28;5088267;28;20446;-51
2024/02/11 04:13:09;;;;;;;0.30;0.20;;;;;;;10.36;96.85;97602.91;5089373;28;20452;-51
2024/02/11 04:15:37;;;;;;;0.30;0.20;;;;;;;10.57;97.16;97605.88;5094453;28;20473;-51
2024/02/11 04:18:10;;;;;;;0.30;0.20;;;;;;;10.66;96.75;97612.31;5094476;28;20498;-52
2024/02/11 04:20:37;;;;;;;0.30;0.20;;;;;;;10.58;96.80;97609.38;5094709;28;20416;-52
2024/02/11 04:23:04;;;;;;;0.30;0.20;;;;;;;10.53;96.88;97615.00;5094357;28;20820;-51
2024/02/11 04:25:35;;;;;;;0.30;0.20;;;;;;;10.41;97.03;97626.47;5094474;28;20473;-52
2024/02/11 04:28:05;;;;;;;0.30;0.20;;;;;;;10.60;97.11;97626.03;5094195;28;20485;-52
2024/02/11 04:30:32;;;;;;;0.30;0.20;;;;;;;10.40;97.03;97627.44;5093727;28;20480;-50
2024/02/11 04:33:03;;;;;;;0.30;0.20;;;;;;;10.26;97.18;97630.22;5094301;28;20456;-51
2024/02/11 04:35:31;;;;;;;0.30;0.20;;;;;;;10.32;96.56;97629.81;5094384;28;20906;-51
2024/02/11 04:37:59;;;;;;;0.30;0.20;;;;;;;10.35;96.83;97633.09;5094108;28;20532;-51
2024/02/11 04:40:26;;;;;;;0.30;0.20;;;;;;;10.15;97.05;97630.97;5093823;28;20494;-51
2024/02/11 04:42:56;;;;;;;0.30;0.20;;;;;;;10.32;96.95;97641.28;5093909;28;20515;-51
2024/02/11 04:45:25;;;;;;;0.30;0.20;;;;;;;10.28;97.32;97634.50;5093983;28;20464;-51
2024/02/11 04:48:03;;;;;;;0.30;0.20;;;;;;;10.08;97.15;97634.97;5086516;28;20842;-51
2024/02/11 04:50:31;;;;;;;0.30;0.20;;;;;;;10.35;96.96;97646.34;5093859;28;20476;-52
2024/02/11 04:53:02;;;;;;;0.30;0.20;;;;;;;10.15;97.15;97644.22;5093769;28;20468;-52
2024/02/11 04:55:38;;;;;;;0.30;0.20;;;;;;;10.20;96.43;97636.78;5093831;28;20510;-52
2024/02/11 04:58:19;;;;;;;0.30;0.20;;;;;;;10.28;96.45;97645.09;5093811;28;20498;-52
2024/02/11 05:00:47;;;;;;;0.30;0.20;;;;;;;10.27;96.04;97648.69;5093607;28;20490;-52
2024/02/11 05:03:17;;;;;;;0.30;0.20;;;;;;;10.23;96.29;97643.72;5093466;28;20442;-52
2024/02/11 05:05:46;;;;;;;0.30;0.20;;;;;;;10.30;96.27;97647.66;5093782;28;20497;-51
2024/02/11 05:08:16;;;;;;;0.30;0.20;;;;;;;10.18;95.84;97644.00;5093554;28;20904;-52
2024/02/11 05:10:45;;;;;;;0.30;0.20;;;;;;;10.27;95.69;97648.69;5087042;28;20484;-51
2024/02/11 05:13:14;;;;;;;0.30;0.20;;;;;;;10.20;95.19;97655.38;5088837;28;20988;-52
2024/02/11 05:15:42;;;;;;;0.30;0.20;;;;;;;10.33;95.10;97655.41;5093193;28;20534;-51
2024/02/11 05:18:11;;;;;;;0.30;0.20;;;;;;;10.36;94.74;97661.34;5093152;28;20552;-51
2024/02/11 05:20:39;;;;;;;0.30;0.20;;;;;;;10.27;94.72;97656.66;5093540;28;20539;-52
2024/02/11 05:23:09;;;;;;;0.30;0.20;;;;;;;10.20;94.50;97670.44;5093266;28;20484;-52
2024/02/11 05:25:38;;;;;;;0.30;0.20;;;;;;;10.19;94.76;97669.59;5093296;28;20472;-52
2024/02/11 05:28:09;;;;;;;0.30;0.20;;;;;;;10.14;95.20;97662.88;5092747;28;20459;-52
2024/02/11 05:30:42;;;;;;;0.30;0.20;;;;;;;10.29;94.05;97660.09;5093316;28;20557;-52
2024/02/11 05:33:19;;;;;;;0.30;0.20;;;;;;;10.31;94.62;97671.44;5093401;28;20427;-52
2024/02/11 05:35:48;;;;;;;0.30;0.20;;;;;;;10.37;94.37;97668.34;5091817;28;20922;-52
2024/02/11 05:38:15;;;;;;;0.30;0.20;;;;;;;10.27;94.55;97671.72;5092931;28;20476;-51
2024/02/11 05:40:48;;;;;;;0.30;0.20;;;;;;;10.34;94.26;97679.19;5092166;28;20873;-51
2024/02/11 05:43:15;;;;;;;0.30;0.20;;;;;;;10.32;94.45;97681.09;5081866;28;20445;-52
2024/02/11 05:45:44;;;;;;;0.30;0.20;;;;;;;10.38;94.72;97680.66;5092833;28;20450;-52
2024/02/11 05:48:12;;;;;;;0.30;0.20;;;;;;;10.39;95.04;97686.81;5085642;28;20493;-51
2024/02/11 05:50:40;;;;;;;0.30;0.20;;;;;;;10.47;94.89;97683.63;5092548;28;20932;-52
2024/02/11 05:53:08;;;;;;;0.30;0.20;;;;;;;10.32;94.90;97691.72;5092606;28;20536;-51
2024/02/11 05:55:35;;;;;;;0.30;0.20;;;;;;;10.32;95.04;97694.38;5092708;28;20443;-52
2024/02/11 05:58:03;;;;;;;0.30;0.20;;;;;;;10.22;95.23;97690.66;5092492;28;20984;-52
2024/02/11 06:00:31;;;;;;;0.30;0.20;;;;;;;10.23;95.44;97692.34;5103956;28;20463;-52
2024/02/11 06:02:58;;;;;;;0.30;0.20;;;;;;;10.19;95.83;97688.19;5092472;28;20945;-51
2024/02/11 06:05:25;;;;;;;0.30;0.20;;;;;;;10.10;95.60;97700.28;5092308;28;20555;-52
2024/02/11 06:07:58;;;;;;;0.30;0.20;;;;;;;10.00;95.77;97693.03;5092143;28;20485;-52
2024/02/11 06:10:26;;;;;;;0.30;0.20;;;;;;;10.01;96.48;97689.44;5091183;28;20950;-52
2024/02/11 06:12:57;;;;;;;0.30;0.20;;;;;;;10.06;96.52;97701.44;5092544;28;20424;-51
2024/02/11 06:15:25;;;;;;;0.73;0.73;;;;;;;10.03;95.86;97706.13;5092283;28;20461;-52
2024/02/11 06:17:57;;;;;;;0.30;0.20;;;;;;;9.97;96.57;97709.16;5092338;28;20420;-52
2024/02/11 06:20:24;;;;;;;0.30;0.20;;;;;;;10.03;96.12;97712.28;5092353;28;20452;-53
2024/02/11 06:22:52;;;;;;;0.30;0.20;;;;;;;10.05;96.53;97723.63;5092183;28;20423;-51
2024/02/11 06:25:24;;;;;;;0.30;0.20;;;;;;;10.12;96.11;97726.69;5092411;28;20497;-52
2024/02/11 06:27:52;;;;;;;0.30;0.20;;;;;;;10.13;96.13;97732.84;5091958;28;20979;-51
2024/02/11 06:30:20;;;;;;;0.30;0.20;;;;;;;10.17;95.79;97734.38;5082930;28;20448;-52
2024/02/11 06:32:53;;;;;;;0.30;0.20;;;;;;;10.21;95.73;97741.16;5087993;28;20891;-51
2024/02/11 06:35:21;;;;;;;0.30;0.20;;;;;;;10.16;95.62;97740.63;5092125;28;20848;-51
2024/02/11 06:37:49;;;;;;;0.30;0.20;;;;;;;10.20;95.05;97739.47;5092200;28;20535;-52
2024/02/11 06:40:25;;;;;;;0.30;0.20;;;;;;;10.28;95.43;97745.13;5092155;28;20502;-52
2024/02/11 06:42:54;;;;;;;0.30;0.20;;;;;;;10.25;95.64;97753.31;5084784;28;20446;-51
2024/02/11 06:45:20;;;;;;;0.30;0.20;;;;;;;10.27;95.29;97760.19;5084965;28;21122;-51
2024/02/11 06:47:48;;;;;;;1.17;1.17;;;;;;;10.28;95.58;97761.03;5085918;28;20474;-51
2024/02/11 06:50:15;;;;;;;0.30;0.20;;;;;;;10.29;95.30;97757.47;5091798;28;20981;-51
2024/02/11 06:52:45;;;;;;;0.30;0.20;;;;;;;10.17;95.55;97756.47;5091375;28;20458;-51
2024/02/11 06:55:15;;;;;;;0.30;0.20;;;;;;;10.19;96.14;97757.19;5091720;28;21010;-50
2024/02/11 06:57:44;;;;;;;0.30;0.20;;;;;;;10.29;95.68;97771.59;5091694;28;20437;-51
2024/02/11 07:00:13;;;;;;;0.30;0.20;;;;;;;10.26;95.83;97766.47;5091626;28;20938;-51
2024/02/11 07:02:40;;;;;;;0.30;0.20;;;;;;;10.31;95.44;97777.66;5091602;28;20479;-51
2024/02/11 07:05:11;;;;;;;0.30;0.20;;;;;;;10.36;95.93;97782.63;5091702;28;20527;-51
2024/02/11 07:07:42;;;;;;;0.30;0.20;;;;;;;10.42;96.43;97789.34;5091952;28;20486;-51
2024/02/11 07:10:09;;;;;;;0.30;0.20;;;;;;;10.36;95.64;97795.91;5090148;28;20560;-51
2024/02/11 07:12:35;;;;;;;0.30;0.20;;;;;;;10.41;96.06;97799.09;5091818;28;20427;-51
2024/02/11 07:15:04;;;;;;;0.30;0.20;;;;;;;10.42;95.75;97798.16;5091413;28;20469;-51
2024/02/11 07:17:32;;;;;;;0.30;0.20;;;;;;;10.42;96.17;97802.63;5091538;28;20923;-52
2024/02/11 07:19:59;;;;;;;0.30;0.20;;;;;;;10.39;96.01;97801.00;5091499;28;20454;-51
2024/02/11 07:22:25;;;;;;;0.30;0.20;;;;;;;10.38;95.97;97802.81;5091509;28;20445;-51
2024/02/11 07:24:52;;;;;;;0.30;0.20;;;;;;;10.46;96.06;97812.06;5091222;28;20464;-51
2024/02/11 07:27:19;;;;;;;0.30;0.20;;;;;;;10.41;96.14;97814.16;5091636;28;20484;-51
2024/02/11 07:29:46;;;;;;;0.30;0.20;;;;;;;10.39;96.27;97816.94;5078498;28;20484;-52
2024/02/11 07:32:13;;;;;;;0.30;0.20;;;;;;;10.44;96.16;97814.00;5091531;28;20442;-52
2024/02/11 07:34:40;;;;;;;0.30;0.20;;;;;;;10.46;95.96;97818.25;5091509;28;20554;-51
2024/02/11 07:37:07;;;;;;;0.30;0.20;;;;;;;10.33;96.90;97815.56;5091316;28;20941;-51
2024/02/11 07:39:34;;;;;;;0.30;0.20;;;;;;;10.31;96.96;97824.59;5091130;28;20448;-51
2024/02/11 07:42:00;;;;;;;0.30;0.20;;;;;;;10.26;96.78;97834.63;5091309;28;20488;-52
2024/02/11 07:44:28;;;;;;;0.30;0.20;;;;;;;10.42;96.31;97838.00;5089808;28;20443;-51
2024/02/11 07:46:54;;;;;;;0.30;0.20;;;;;;;10.41;96.33;97836.25;5091172;28;20982;-50
2024/02/11 07:49:21;;;;;;;0.30;0.20;;;;;;;10.35;96.38;97840.19;5091053;28;20904;-51
2024/02/11 07:51:48;;;;;;;0.30;0.20;;;;;;;10.49;96.00;97843.72;5090946;28;20915;-50
2024/02/11 07:54:14;;;;;;;0.30;0.20;;;;;;;10.49;96.43;97843.72;5090927;28;21029;-51
2024/02/11 07:56:43;;;;;;;0.30;0.20;;;;;;;10.52;95.98;97855.00;5091082;28;20445;-50
2024/02/11 07:59:13;;;;;;;0.30;0.20;;;;;;;10.53;95.98;97856.69;5096138;28;20520;-51
2024/02/11 08:01:39;;;;;;;0.30;0.20;;;;;;;10.52;96.16;97862.97;5097034;28;20518;-52
2024/02/11 08:04:06;;;;;;;0.30;0.20;;;;;;;10.47;96.43;97858.94;5091232;28;20512;-51
2024/02/11 08:06:34;;;;;;;0.30;0.20;;;;;;;10.58;96.06;97859.91;5094397;28;20469;-51
2024/02/11 08:09:02;;;;;;;0.30;0.20;;;;;;;10.64;95.80;97861.28;5095020;28;20463;-51
2024/02/11 08:11:33;;;;;;;0.30;0.20;;;;;;;10.63;96.07;97870.22;5097159;28;20894;-51
2024/02/11 08:13:59;;;;;;;0.30;0.20;;;;;;;10.57;95.95;97867.97;5098707;28;20416;-52
2024/02/11 08:16:26;;;;;;;0.30;0.20;;;;;;;10.57;96.21;97873.28;5103359;28;20464;-51
2024/02/11 08:18:54;;;;;;;0.30;0.20;;;;;;;10.62;96.35;97871.16;5106173;28;20469;-52
2024/02/11 08:21:21;;;;;;;0.30;0.20;;;;;;;10.53;96.33;97869.13;5094631;28;20449;-51
2024/02/11 08:23:48;;;;;;;0.30;0.20;;;;;;;10.51;96.50;97871.88;5094800;28;20449;-52
2024/02/11 08:26:15;;;;;;;0.30;0.20;;;;;;;10.56;96.61;97876.91;5094722;28;20608;-52
2024/02/11 08:28:42;;;;;;;0.30;0.20;;;;;;;10.69;96.42;97885.75;5094398;28;20488;-51
2024/02/11 08:31:09;;;;;;;0.30;0.20;;;;;;;10.72;96.03;97877.56;5094281;28;20451;-51
2024/02/11 08:33:35;;;;;;;0.30;0.20;;;;;;;10.68;96.09;97884.03;5094132;28;20460;-51
2024/02/11 08:36:02;;;;;;;0.30;0.20;;;;;;;10.63;96.99;97872.88;5094127;28;20545;-52
2024/02/11 08:38:31;;;;;;;0.30;0.20;;;;;;;10.72;96.39;97885.53;5094639;28;20445;-51
2024/02/11 08:40:58;;;;;;;0.30;0.20;;;;;;;10.65;96.35;97889.53;5094088;28;20424;-51
2024/02/11 08:43:25;;;;;;;0.30;0.20;;;;;;;10.75;96.02;97887.97;5094519;28;20445;-51
2024/02/11 08:45:52;;;;;;;0.30;0.20;;;;;;;10.75;97.10;97889.78;5093822;28;20465;-51
2024/02/11 08:48:20;;;;;;;0.30;0.20;;;;;;;10.79;96.44;97891.28;5086743;28;20568;-51
2024/02/11 08:50:47;;;;;;;0.30;0.20;;;;;;;10.80;96.33;97890.31;5094216;28;20449;-52
2024/02/11 08:53:18;;;;;;;0.30;0.20;;;;;;;10.89;96.04;97895.88;5094132;28;20420;-52
2024/02/11 08:55:45;;;;;;;0.30;0.20;;;;;;;10.88;95.84;97898.63;5094408;28;20892;-51
2024/02/11 08:58:14;;;;;;;0.30;0.20;;;;;;;10.78;96.03;97895.72;5093581;28;20956;-51
2024/02/11 09:00:41;;;;;;;0.30;0.20;;;;;;;10.88;95.84;97894.16;5094004;28;20506;-51
2024/02/11 09:03:08;;;;;;;0.30;0.20;;;;;;;10.84;95.12;97894.50;5094080;28;20441;-51
2024/02/11 09:05:34;;;;;;;0.30;0.20;;;;;;;10.84;96.40;97895.34;5093844;28;20552;-52
2024/02/11 09:08:01;;;;;;;0.30;0.20;;;;;;;10.86;95.94;97898.75;5093605;28;20485;-51
2024/02/11 09:10:27;;;;;;;0.80;0.80;;;;;;;10.88;95.66;97896.81;5089414;28;20503;-51
2024/02/11 09:12:54;;;;;;;0.30;0.20;;;;;;;10.99;95.66;97893.44;5086754;28;20499;-52
2024/02/11 09:15:22;;;;;;;0.30;0.20;;;;;;;11.13;95.41;97895.13;5093088;28;20469;-52
2024/02/11 09:17:49;;;;;;;0.30;0.20;;;;;;;11.13;95.02;97889.81;5093924;28;20447;-52
2024/02/11 09:20:16;;;;;;;0.30;0.20;;;;;;;11.24;94.89;97898.75;5093651;28;20453;-52
2024/02/11 09:22:43;;;;;;;0.30;0.20;;;;;;;11.11;94.98;97903.22;5093456;28;20677;-51
2024/02/11 09:25:11;;;;;;;0.30;0.20;;;;;;;11.12;94.23;97898.75;5093345;28;20461;-52
2024/02/11 09:27:42;;;;;;;0.30;0.20;;;;;;;11.13;94.16;97911.94;5091796;28;20493;-52
2024/02/11 09:30:15;;;;;;;0.30;0.20;;;;;;;11.18;94.31;97912.47;5093329;28;21036;-52
2024/02/11 09:32:41;;;;;;;0.30;0.20;;;;;;;11.25;94.77;97911.09;5092100;28;20468;-51
2024/02/11 09:35:09;;;;;;;0.30;0.20;;;;;;;11.33;94.00;97923.00;5093106;28;20518;-52
2024/02/11 09:37:36;;;;;;;0.30;0.20;;;;;;;11.42;94.13;97920.53;5092988;28;20426;-51
2024/02/11 09:40:03;;;;;;;0.30;0.20;;;;;;;11.49;93.74;97913.81;5092330;28;20456;-51
2024/02/11 09:42:30;;;;;;;0.30;0.20;;;;;;;11.48;93.52;97914.78;5089575;28;20443;-51
2024/02/11 09:44:58;;;;;;;0.30;0.20;;;;;;;11.49;93.76;97916.47;5092919;28;20440;-51
2024/02/11 09:47:25;;;;;;;0.30;0.20;;;;;;;11.62;93.21;97911.16;5085355;28;20467;-52
2024/02/11 09:49:55;;;;;;;0.30;0.20;;;;;;;11.53;92.92;97911.81;5092961;28;20424;-51
2024/02/11 09:52:22;;;;;;;0.30;0.20;;;;;;;11.48;92.88;97909.47;5092893;28;20426;-51
2024/02/11 09:54:51;;;;;;;0.30;0.20;;;;;;;11.67;92.47;97914.34;5092512;28;20463;-51
2024/02/11 09:57:17;;;;;;;0.30;0.20;;;;;;;11.44;93.15;97915.13;5092594;28;20426;-50
2024/02/11 09:59:45;;;;;;;0.30;0.20;;;;;;;11.57;93.61;97924.78;5102596;28;20824;-51
2024/02/11 10:02:18;;;;;;;0.30;0.20;;;;;;;11.69;93.19;97931.06;5093419;28;20530;-51
2024/02/11 10:04:46;;;;;;;0.30;0.20;;;;;;;11.73;92.85;97931.69;5093203;28;20880;-51
2024/02/11 10:07:26;;;;;;;0.30;0.20;;;;;;;12.01;92.24;97933.25;5092651;28;20970;-51
2024/02/11 10:09:59;;;;;;;0.30;0.20;;;;;;;11.92;91.96;97931.22;5092273;28;20551;-52
2024/02/11 10:12:26;;;;;;;0.30;0.20;;;;;;;11.90;91.85;97942.00;5082141;28;20431;-51
2024/02/11 10:14:54;;;;;;;0.30;0.20;;;;;;;11.85;92.26;97938.81;5092025;28;20465;-51
2024/02/11 10:17:22;;;;;;;0.30;0.20;;;;;;;11.85;92.44;97946.81;5080523;28;20424;-51
2024/02/11 10:19:52;;;;;;;0.30;0.20;;;;;;;11.85;92.16;97946.81;5097442;28;20822;-51
2024/02/11 10:22:21;;;;;;;0.30;0.20;;;;;;;11.97;92.07;97945.94;5092627;28;20481;-51
2024/02/11 10:24:56;;;;;;;0.30;0.20;;;;;;;11.93;92.09;97951.59;5099705;28;20472;-51
2024/02/11 10:27:23;;;;;;;0.30;0.20;;;;;;;11.96;92.10;97960.22;5091124;28;20473;-51
2024/02/11 10:29:50;;;;;;;0.30;0.20;;;;;;;11.84;91.51;97956.59;5092890;28;20568;-51
2024/02/11 10:32:17;;;;;;;0.30;0.20;;;;;;;12.09;91.24;97960.19;5092310;28;20955;-51
2024/02/11 10:34:43;;;;;;;0.30;0.20;;;;;;;11.91;92.01;97961.47;5092589;28;20469;-51
2024/02/11 10:37:12;;;;;;;0.30;0.20;;;;;;;12.03;92.08;97957.94;5079386;28;20541;-51
2024/02/11 10:39:42;;;;;;;0.30;0.20;;;;;;;12.26;91.98;97961.59;5079161;28;20562;-51
2024/02/11 10:42:13;;;;;;;0.30;0.20;;;;;;;12.18;91.04;97964.81;5092222;28;20792;-51
2024/02/11 10:44:40;;;;;;;0.30;0.20;;;;;;;12.51;89.51;97964.19;5091954;28;20473;-50
2024/02/11 10:47:08;;;;;;;0.30;0.20;;;;;;;12.51;90.42;97958.00;5083420;28;20450;-51
2024/02/11 10:49:35;;;;;;;0.30;0.20;;;;;;;12.15;89.91;97955.25;5092064;28;20537;-50
2024/02/11 10:52:12;;;;;;;0.30;0.20;;;;;;;12.45;89.41;97959.28;5092129;28;20423;-51
2024/02/11 10:54:41;;;;;;;0.33;0.23;;;;;;;12.29;89.03;97959.56;5092100;28;20448;-51
2024/02/11 10:57:12;;;;;;;0.30;0.20;;;;;;;12.48;88.39;97961.75;5078475;28;20449;-51
2024/02/11 10:59:50;;;;;;;0.30;0.20;;;;;;;12.72;86.64;97959.91;5091775;28;20451;-51
2024/02/11 11:02:17;;;;;;;0.30;0.20;;;;;;;12.57;86.25;97958.38;5078309;28;20430;-51
2024/02/11 11:04:46;;;;;;;0.30;0.20;;;;;;;12.67;86.38;97955.91;5091792;28;20439;-51
2024/02/11 11:07:17;;;;;;;0.30;0.20;;;;;;;12.84;86.25;97946.63;5091721;28;20445;-52
2024/02/11 11:09:45;;;;;;;0.30;0.20;;;;;;;12.63;84.51;97963.28;5091810;28;21077;-51
2024/02/11 11:12:15;;;;;;;0.30;0.20;;;;;;;12.59;84.85;97963.59;5081353;28;20454;-50
2024/02/11 11:14:45;;;;;;;0.30;0.20;;;;;;;12.80;84.22;97962.00;5092054;28;20465;-52
2024/02/11 11:17:20;;;;;;;0.30;0.20;;;;;;;13.14;83.15;97954.09;5091915;28;20493;-50
2024/02/11 11:19:48;;;;;;;0.30;0.20;;;;;;;12.93;84.66;97953.94;5091711;28;20451;-51
2024/02/11 11:22:25;;;;;;;0.30;0.20;;;;;;;12.70;84.14;97966.31;5091651;28;20456;-52
2024/02/11 11:24:53;;;;;;;0.30;0.20;;;;;;;12.71;84.64;97960.03;5091667;28;20471;-50
2024/02/11 11:27:21;;;;;;;0.30;0.20;;;;;;;12.87;84.31;97955.22;5091432;28;20448;-51
2024/02/11 11:29:49;;;;;;;0.30;0.20;;;;;;;12.80;84.44;97947.84;5091183;28;20466;-51
2024/02/11 11:32:22;;;;;;;0.30;0.20;;;;;;;12.95;84.94;97946.66;5091394;28;20543;-50
2024/02/11 11:34:50;;;;;;;0.30;0.20;;;;;;;12.99;84.16;97935.63;5091280;28;20523;-50
2024/02/11 11:37:18;;;;;;;0.30;0.20;;;;;;;12.97;83.33;97937.59;5091454;28;20431;-49
2024/02/11 11:39:45;;;;;;;0.30;0.20;;;;;;;12.81;83.80;97936.19;5093917;28;20449;-50
2024/02/11 11:42:12;;;;;;;0.30;0.20;;;;;;;13.06;82.95;97936.03;5095370;28;20448;-50